createdAt,value
2018-11-20T00:01:43.067Z,4.30
2018-11-20T00:04:29.959Z,4.30
2018-11-20T00:07:20.915Z,4.30
2018-11-20T00:10:28.269Z,4.40
2018-11-20T00:13:26.678Z,4.30
2018-11-20T00:16:33.957Z,4.30
2018-11-20T00:19:41.298Z,4.40
2018-11-20T00:22:38.653Z,4.30
2018-11-20T00:25:46.000Z,4.40
2018-11-20T00:28:53.281Z,4.30
2018-11-20T00:32:00.624Z,4.30
2018-11-20T00:35:07.907Z,4.30
2018-11-20T00:38:15.231Z,4.30
2018-11-20T00:41:22.561Z,4.30
2018-11-20T00:44:29.917Z,4.30
2018-11-20T00:47:37.228Z,4.30
2018-11-20T00:50:44.560Z,4.30
2018-11-20T00:53:33.398Z,4.30
2018-11-20T00:56:59.725Z,4.30
2018-11-20T01:00:07.041Z,4.30
2018-11-20T01:03:14.387Z,4.30
2018-11-20T01:06:21.684Z,4.30
2018-11-20T01:09:29.031Z,4.30
2018-11-20T01:12:36.329Z,4.30
2018-11-20T01:15:43.381Z,4.30
2018-11-20T01:18:50.668Z,4.30
2018-11-20T01:21:58.027Z,4.20
2018-11-20T01:25:05.342Z,4.30
2018-11-20T01:28:01.447Z,4.30
2018-11-20T01:31:08.744Z,4.30
2018-11-20T01:34:16.094Z,4.30
2018-11-20T01:37:23.376Z,4.30
2018-11-20T01:40:30.719Z,4.30
2018-11-20T01:43:38.044Z,4.30
2018-11-20T01:46:38.318Z,4.30
2018-11-20T01:49:45.607Z,4.30
2018-11-20T01:52:52.945Z,4.30
2018-11-20T01:56:00.260Z,4.30
2018-11-20T01:59:07.609Z,4.20
2018-11-20T02:02:14.908Z,4.20
2018-11-20T02:05:22.245Z,4.20
2018-11-20T02:08:29.556Z,4.20
2018-11-20T02:11:36.909Z,4.30
2018-11-20T02:14:44.229Z,4.30
2018-11-20T02:17:52.738Z,4.20
2018-11-20T02:21:00.039Z,4.20
2018-11-20T02:24:07.406Z,4.20
2018-11-20T02:27:14.708Z,4.20
2018-11-20T02:30:22.432Z,4.30
2018-11-20T02:33:02.005Z,4.30
2018-11-20T02:35:39.807Z,4.30
2018-11-20T02:38:26.573Z,4.30
2018-11-20T02:41:17.905Z,4.30
2018-11-20T02:44:25.210Z,4.30
2018-11-20T02:47:33.614Z,4.30
2018-11-20T02:50:20.476Z,4.30
2018-11-20T02:53:27.825Z,4.30
2018-11-20T02:56:35.119Z,4.30
2018-11-20T02:59:42.485Z,4.20
2018-11-20T03:02:39.562Z,4.30
2018-11-20T03:05:30.954Z,4.20
2018-11-20T03:08:19.411Z,4.20
2018-11-20T03:11:10.348Z,4.10
2018-11-20T03:14:07.642Z,4.10
2018-11-20T03:17:11.061Z,4.00
2018-11-20T03:19:49.953Z,4.10
2018-11-20T03:22:41.352Z,4.00
2018-11-20T03:26:09.328Z,4.00
2018-11-20T03:29:08.581Z,3.90
2018-11-20T03:31:55.199Z,3.90
2018-11-20T03:34:49.387Z,3.90
2018-11-20T03:37:52.095Z,3.90
2018-11-20T03:40:59.568Z,3.90
2018-11-20T03:44:06.879Z,3.90
2018-11-20T03:47:14.218Z,3.90
2018-11-20T03:50:21.518Z,3.90
2018-11-20T03:53:29.658Z,3.90
2018-11-20T03:56:36.963Z,3.90
2018-11-20T03:59:44.308Z,3.90
2018-11-20T04:02:51.627Z,3.80
2018-11-20T04:05:52.848Z,3.80
2018-11-20T04:09:00.142Z,3.80
2018-11-20T04:12:07.482Z,3.80
2018-11-20T04:15:14.785Z,3.80
2018-11-20T04:18:22.144Z,3.80
2018-11-20T04:21:30.163Z,3.80
2018-11-20T04:24:37.517Z,3.80
2018-11-20T04:27:44.809Z,3.80
2018-11-20T04:31:11.113Z,3.80
2018-11-20T04:34:18.420Z,3.80
2018-11-20T04:37:25.768Z,3.80
2018-11-20T04:40:33.066Z,3.80
2018-11-20T04:43:40.430Z,3.80
2018-11-20T04:46:47.740Z,3.80
2018-11-20T04:49:41.721Z,3.70
2018-11-20T04:52:49.140Z,3.70
2018-11-20T04:55:56.531Z,3.70
2018-11-20T04:58:51.467Z,3.70
2018-11-20T05:01:39.221Z,3.60
2018-11-20T05:04:30.307Z,3.60
2018-11-20T05:07:11.510Z,3.50
2018-11-20T05:09:59.839Z,3.50
2018-11-20T05:13:07.231Z,3.50
2018-11-20T05:16:14.478Z,3.40
2018-11-20T05:19:21.819Z,3.50
2018-11-20T05:22:29.101Z,3.50
2018-11-20T05:25:36.464Z,3.50
2018-11-20T05:28:43.766Z,3.40
2018-11-20T05:31:51.416Z,3.40
2018-11-20T05:34:58.707Z,3.40
2018-11-20T05:38:03.074Z,3.30
2018-11-20T05:41:10.374Z,3.30
2018-11-20T05:44:17.711Z,3.30
2018-11-20T05:47:25.032Z,3.40
2018-11-20T05:50:32.369Z,3.40
2018-11-20T05:53:39.702Z,3.30
2018-11-20T05:56:47.057Z,3.30
2018-11-20T05:59:54.361Z,3.30
2018-11-20T06:03:02.030Z,3.20
2018-11-20T06:06:57.834Z,3.30
2018-11-20T06:09:57.578Z,3.30
2018-11-20T06:12:57.940Z,3.30
2018-11-20T06:15:45.448Z,3.30
2018-11-20T06:18:32.909Z,3.20
2018-11-20T06:21:39.900Z,3.20
2018-11-20T06:24:46.798Z,3.30
2018-11-20T06:27:53.752Z,3.20
2018-11-20T06:31:01.995Z,3.20
2018-11-20T06:34:09.057Z,3.20
2018-11-20T06:37:06.285Z,3.10
2018-11-20T06:40:13.234Z,3.10
2018-11-20T06:43:20.121Z,3.00
2018-11-20T06:46:27.095Z,3.10
2018-11-20T06:49:33.994Z,3.10
2018-11-20T06:52:41.022Z,3.00
2018-11-20T06:55:47.855Z,3.00
2018-11-20T06:58:54.809Z,3.00
2018-11-20T07:02:01.734Z,3.00
2018-11-20T07:05:08.679Z,3.00
2018-11-20T07:08:15.744Z,3.00
2018-11-20T07:11:22.551Z,3.00
2018-11-20T07:14:30.888Z,3.00
2018-11-20T07:17:39.053Z,3.00
2018-11-20T07:20:45.963Z,3.00
2018-11-20T07:23:52.918Z,3.00
2018-11-20T07:26:59.948Z,3.00
2018-11-20T07:30:07.016Z,3.00
2018-11-20T07:33:13.832Z,3.00
2018-11-20T07:36:20.957Z,3.00
2018-11-20T07:39:27.701Z,3.00
2018-11-20T07:42:34.900Z,3.00
2018-11-20T07:45:41.661Z,3.00
2018-11-20T07:48:31.949Z,3.00
2018-11-20T07:51:39.217Z,3.00
2018-11-20T07:54:46.047Z,3.00
2018-11-20T07:57:52.950Z,3.00
2018-11-20T08:00:59.907Z,3.00
2018-11-20T08:04:06.790Z,3.10
2018-11-20T08:07:13.743Z,3.10
2018-11-20T08:10:01.239Z,3.10
2018-11-20T08:13:08.188Z,3.00
2018-11-20T08:16:15.102Z,3.10
2018-11-20T08:19:22.062Z,3.10
2018-11-20T08:22:28.990Z,3.10
2018-11-20T08:25:35.952Z,3.10
2018-11-20T08:28:42.912Z,3.10
2018-11-20T08:31:49.844Z,3.20
2018-11-20T08:34:56.824Z,3.20
2018-11-20T08:38:03.750Z,3.20
2018-11-20T08:41:10.665Z,3.20
2018-11-20T08:44:17.655Z,3.20
2018-11-20T08:50:29.484Z,3.30
2018-11-20T08:53:36.418Z,3.20
2018-11-20T08:56:26.882Z,3.30
2018-11-20T08:59:29.329Z,3.30
2018-11-20T09:02:19.671Z,3.30
2018-11-20T09:05:19.097Z,3.30
2018-11-20T09:08:18.576Z,3.30
2018-11-20T09:11:03.553Z,3.30
2018-11-20T09:13:49.356Z,3.30
2018-11-20T09:16:25.906Z,3.30
2018-11-20T09:19:22.100Z,3.30
2018-11-20T09:22:08.092Z,3.30
2018-11-20T09:25:15.040Z,3.30
2018-11-20T09:28:21.970Z,3.30
2018-11-20T09:31:28.929Z,3.30
2018-11-20T09:34:35.927Z,3.30
2018-11-20T09:37:15.732Z,3.40
2018-11-20T09:40:42.142Z,3.40
2018-11-20T09:43:51.177Z,3.40
2018-11-20T09:46:58.168Z,3.40
2018-11-20T09:50:05.075Z,3.40
2018-11-20T09:53:03.582Z,3.40
2018-11-20T09:56:10.557Z,3.40
2018-11-20T09:58:56.498Z,3.40
2018-11-20T10:01:44.093Z,3.40
2018-11-20T10:04:50.952Z,3.40
2018-11-20T10:07:57.885Z,3.40
2018-11-20T10:11:04.788Z,3.40
2018-11-20T10:14:11.875Z,3.40
2018-11-20T10:17:18.651Z,3.40
2018-11-20T10:20:26.023Z,3.40
2018-11-20T10:23:32.916Z,3.50
2018-11-20T10:26:39.863Z,3.50
2018-11-20T10:29:47.426Z,3.50
2018-11-20T10:32:54.397Z,3.50
2018-11-20T10:36:01.283Z,3.60
2018-11-20T10:39:08.235Z,3.60
2018-11-20T10:42:15.153Z,3.60
2018-11-20T10:45:22.183Z,3.50
2018-11-20T10:48:29.036Z,3.50
2018-11-20T10:51:36.102Z,3.50
2018-11-20T10:54:42.997Z,3.50
2018-11-20T10:57:49.930Z,3.50
2018-11-20T11:00:56.834Z,3.60
2018-11-20T11:04:03.796Z,3.50
2018-11-20T11:07:11.524Z,3.60
2018-11-20T11:10:18.196Z,3.60
2018-11-20T11:13:25.110Z,3.60
2018-11-20T11:16:32.201Z,3.60
2018-11-20T11:19:39.096Z,3.60
2018-11-20T11:22:46.065Z,3.60
2018-11-20T11:25:52.964Z,3.60
2018-11-20T11:28:59.923Z,3.60
2018-11-20T11:31:46.586Z,3.60
2018-11-20T11:34:53.345Z,3.60
2018-11-20T11:38:00.250Z,3.60
2018-11-20T11:41:07.532Z,3.60
2018-11-20T11:44:14.457Z,3.60
2018-11-20T11:47:21.771Z,3.60
2018-11-20T11:50:09.326Z,3.60
2018-11-20T11:53:16.281Z,3.60
2018-11-20T11:56:23.201Z,3.60
2018-11-20T11:59:30.152Z,3.60
2018-11-20T12:05:43.782Z,3.70
2018-11-20T12:08:31.309Z,3.70
2018-11-20T12:11:21.807Z,3.60
2018-11-20T12:14:07.943Z,3.60
2018-11-20T12:16:54.112Z,3.60
2018-11-20T12:20:01.011Z,3.60
2018-11-20T12:23:08.275Z,3.60
2018-11-20T12:26:15.197Z,3.50
2018-11-20T12:29:14.848Z,3.50
2018-11-20T12:32:20.558Z,3.60
2018-11-20T12:35:33.095Z,3.60
2018-11-20T12:38:34.415Z,3.60
2018-11-20T12:41:41.377Z,3.60
2018-11-20T12:44:48.281Z,3.60
2018-11-20T12:47:55.287Z,3.50
2018-11-20T12:51:02.128Z,3.50
2018-11-20T12:54:09.075Z,3.50
2018-11-20T12:57:15.970Z,3.50
2018-11-20T13:00:15.589Z,3.50
2018-11-20T13:03:15.859Z,3.50
2018-11-20T13:06:15.975Z,3.50
2018-11-20T13:09:15.804Z,3.50
2018-11-20T13:12:15.350Z,3.50
2018-11-20T13:15:22.295Z,3.40
2018-11-20T13:18:29.247Z,3.40
2018-11-20T13:21:36.138Z,3.40
2018-11-20T13:24:43.115Z,3.30
2018-11-20T13:27:50.038Z,3.40
2018-11-20T13:30:57.034Z,3.40
2018-11-20T13:34:03.921Z,3.40
2018-11-20T13:36:47.542Z,3.40
2018-11-20T13:39:53.032Z,3.40
2018-11-20T13:42:54.775Z,3.40
2018-11-20T13:45:56.992Z,3.30
2018-11-20T13:48:59.316Z,3.20
2018-11-20T13:51:57.659Z,3.10
2018-11-20T13:55:04.609Z,3.10
2018-11-20T13:58:11.511Z,3.20
2018-11-20T14:01:18.469Z,3.20
2018-11-20T14:04:25.375Z,3.20
2018-11-20T14:07:30.991Z,3.20
2018-11-20T14:10:37.890Z,3.20
2018-11-20T14:13:44.838Z,3.20
2018-11-20T14:16:51.734Z,3.20
2018-11-20T14:19:58.684Z,3.10
2018-11-20T14:23:05.597Z,3.20
2018-11-20T14:26:12.543Z,3.10
2018-11-20T14:29:19.443Z,3.20
2018-11-20T14:32:26.397Z,3.20
2018-11-20T14:35:33.286Z,3.20
2018-11-20T14:38:40.416Z,3.20
2018-11-20T14:41:47.338Z,3.20
2018-11-20T14:44:54.294Z,3.20
2018-11-20T14:48:01.198Z,3.20
2018-11-20T14:51:08.137Z,3.20
2018-11-20T14:54:15.066Z,3.20
2018-11-20T14:57:13.090Z,3.20
2018-11-20T15:00:19.977Z,3.20
2018-11-20T15:03:26.921Z,3.10
2018-11-20T15:06:33.866Z,3.10
2018-11-20T15:09:41.093Z,3.10
2018-11-20T15:12:26.882Z,3.20
2018-11-20T15:15:29.667Z,3.30
2018-11-20T15:18:19.699Z,3.30
2018-11-20T15:21:13.064Z,3.30
2018-11-20T15:23:47.783Z,3.30
2018-11-20T15:26:43.921Z,3.20
2018-11-20T15:29:46.295Z,3.20
2018-11-20T15:32:33.851Z,3.20
2018-11-20T15:35:21.283Z,3.20
2018-11-20T15:38:11.018Z,3.20
2018-11-20T15:41:10.563Z,3.20
2018-11-20T15:44:10.176Z,3.20
2018-11-20T15:47:06.591Z,3.20
2018-11-20T15:49:52.420Z,3.20
2018-11-20T15:52:37.967Z,3.20
2018-11-20T15:55:41.071Z,3.20
2018-11-20T15:58:26.856Z,3.20
2018-11-20T16:01:18.373Z,3.20
2018-11-20T16:04:01.971Z,3.20
2018-11-20T16:07:08.907Z,3.20
2018-11-20T16:10:01.952Z,3.20
2018-11-20T16:13:08.894Z,3.20
2018-11-20T16:16:15.939Z,3.20
2018-11-20T16:19:22.869Z,3.20
2018-11-20T16:22:29.787Z,2.90
2018-11-20T16:25:21.192Z,3.30
2018-11-20T16:28:15.386Z,3.20
2018-11-20T16:31:11.719Z,3.20
2018-11-20T16:34:01.825Z,3.30
2018-11-20T16:36:48.309Z,3.30
2018-11-20T16:39:30.990Z,3.20
2018-11-20T16:42:37.922Z,3.20
2018-11-20T16:45:44.864Z,3.20
2018-11-20T16:48:51.824Z,3.20
2018-11-20T16:51:58.809Z,3.20
2018-11-20T16:55:05.739Z,3.20
2018-11-20T16:58:08.862Z,3.10
2018-11-20T17:01:15.803Z,3.20
2018-11-20T17:04:16.632Z,3.20
2018-11-20T17:07:24.587Z,3.20
2018-11-20T17:10:30.483Z,3.20
2018-11-20T17:13:27.122Z,3.10
2018-11-20T17:16:34.003Z,3.10
2018-11-20T17:19:30.621Z,3.10
2018-11-20T17:22:37.569Z,3.10
2018-11-20T17:25:44.573Z,3.20
2018-11-20T17:28:51.476Z,3.20
2018-11-20T17:31:44.945Z,3.20
2018-11-20T17:34:42.095Z,3.20
2018-11-20T17:37:45.060Z,3.20
2018-11-20T17:40:51.998Z,3.00
2018-11-20T17:43:59.004Z,3.20
2018-11-20T17:50:24.190Z,3.20
2018-11-20T17:53:31.201Z,3.20
2018-11-20T17:56:30.902Z,3.10
2018-11-20T17:59:18.454Z,3.00
2018-11-20T18:02:25.445Z,2.90
2018-11-20T18:05:32.342Z,2.90
2018-11-20T18:08:39.324Z,2.90
2018-11-20T18:11:46.291Z,2.90
2018-11-20T18:14:53.285Z,2.90
2018-11-20T18:18:00.188Z,2.90
2018-11-20T18:21:07.129Z,2.80
2018-11-20T18:24:14.731Z,2.80
2018-11-20T18:27:21.683Z,2.80
2018-11-20T18:30:18.066Z,2.80
2018-11-20T18:33:05.669Z,2.80
2018-11-20T18:35:44.387Z,2.80
2018-11-20T18:38:52.280Z,2.80
2018-11-20T18:41:38.449Z,2.70
2018-11-20T18:44:25.789Z,2.80
2018-11-20T18:47:11.797Z,2.80
2018-11-20T18:50:18.785Z,2.80
2018-11-20T18:53:25.726Z,2.80
2018-11-20T18:56:33.135Z,2.80
2018-11-20T18:59:40.020Z,2.70
2018-11-20T19:02:47.067Z,2.70
2018-11-20T19:05:54.143Z,2.70
2018-11-20T19:09:01.153Z,2.80
2018-11-20T19:12:08.768Z,2.80
2018-11-20T19:15:16.472Z,2.80
2018-11-20T19:17:57.546Z,2.80
2018-11-20T19:20:34.760Z,2.80
2018-11-20T19:23:20.506Z,2.80
2018-11-20T19:26:07.111Z,2.80
2018-11-20T19:28:57.406Z,2.80
2018-11-20T19:32:04.403Z,2.80
2018-11-20T19:35:11.679Z,2.80
2018-11-20T19:38:00.010Z,2.80
2018-11-20T19:40:47.585Z,2.80
2018-11-20T19:43:54.556Z,2.80
2018-11-20T19:47:01.461Z,2.80
2018-11-20T19:50:08.486Z,2.90
2018-11-20T19:53:15.485Z,2.90
2018-11-20T19:56:13.180Z,2.90
2018-11-20T19:59:03.566Z,2.90
2018-11-20T20:02:00.478Z,2.90
2018-11-20T20:04:59.971Z,2.90
2018-11-20T20:08:06.932Z,2.90
2018-11-20T20:11:14.608Z,2.90
2018-11-20T20:14:22.317Z,2.90
2018-11-20T20:17:29.237Z,2.90
2018-11-20T20:20:36.879Z,2.90
2018-11-20T20:23:43.943Z,2.90
2018-11-20T20:26:32.424Z,3.00
2018-11-20T20:29:39.308Z,3.10
2018-11-20T20:32:46.624Z,3.10
2018-11-20T20:35:51.023Z,3.10
2018-11-20T20:38:41.691Z,3.10
2018-11-20T20:41:28.871Z,3.10
2018-11-20T20:44:37.039Z,3.10
2018-11-20T20:47:44.204Z,3.10
2018-11-20T20:50:51.187Z,3.10
2018-11-20T20:53:58.118Z,3.10
2018-11-20T20:57:05.094Z,3.20
2018-11-20T21:00:12.079Z,3.10
2018-11-20T21:03:18.976Z,3.00
2018-11-20T21:06:25.874Z,3.00
2018-11-20T21:09:32.821Z,3.00
2018-11-20T21:12:39.722Z,3.00
2018-11-20T21:15:40.567Z,3.00
2018-11-20T21:18:47.459Z,3.00
2018-11-20T21:21:47.412Z,3.00
2018-11-20T21:24:36.198Z,3.00
2018-11-20T21:27:21.165Z,3.00
2018-11-20T21:30:25.067Z,3.00
2018-11-20T21:33:11.280Z,3.00
2018-11-20T21:35:57.208Z,3.10
2018-11-20T21:38:43.322Z,3.00
2018-11-20T21:41:29.488Z,3.00
2018-11-20T21:44:19.759Z,3.10
2018-11-20T21:47:26.691Z,3.10
2018-11-20T21:50:29.429Z,3.10
2018-11-20T21:53:16.347Z,3.10
2018-11-20T21:56:07.022Z,3.00
2018-11-20T21:58:53.417Z,3.00
2018-11-20T22:01:37.384Z,3.00
2018-11-20T22:04:37.007Z,3.00
2018-11-20T22:07:27.351Z,3.00
2018-11-20T22:10:25.309Z,3.10
2018-11-20T22:13:11.308Z,3.00
2018-11-20T22:19:23.375Z,3.00
2018-11-20T22:22:30.292Z,3.00
2018-11-20T22:25:37.352Z,3.10
2018-11-20T22:28:44.235Z,3.10
2018-11-20T22:31:51.180Z,3.10
2018-11-20T22:34:58.091Z,3.10
2018-11-20T22:38:05.089Z,3.10
2018-11-20T22:41:11.970Z,3.00
2018-11-20T22:44:18.911Z,3.10
2018-11-20T22:47:25.829Z,3.00
2018-11-20T22:50:32.798Z,3.10
2018-11-20T22:53:39.690Z,3.10
2018-11-20T22:56:46.635Z,3.10
2018-11-20T22:59:44.040Z,3.10
2018-11-20T23:02:50.986Z,3.10
2018-11-20T23:05:57.407Z,3.10
2018-11-20T23:08:25.835Z,3.10
2018-11-20T23:11:13.606Z,3.10
2018-11-20T23:14:01.423Z,3.10
2018-11-20T23:16:29.775Z,3.00
2018-11-20T23:18:58.119Z,3.00
2018-11-20T23:21:26.533Z,3.10
2018-11-20T23:23:54.907Z,3.10
2018-11-20T23:26:23.270Z,3.00
2018-11-20T23:28:51.717Z,3.00
2018-11-20T23:31:20.091Z,3.10
2018-11-20T23:33:48.531Z,3.00
2018-11-20T23:36:16.945Z,3.00
2018-11-20T23:38:45.316Z,3.00
2018-11-20T23:41:13.679Z,3.00
2018-11-20T23:43:42.062Z,3.00
2018-11-20T23:46:10.427Z,3.00
2018-11-20T23:48:39.470Z,3.00
2018-11-20T23:51:07.911Z,3.00
2018-11-20T23:53:36.281Z,3.00
2018-11-20T23:56:04.632Z,3.00
2018-11-20T23:58:33.034Z,3.00
